Time;durP1;ratioP1;P1;durP2;ratioP2;P2;SDS_P1;SDS_P2;PMS_P1;PMS_P2;Temp;Humidity;BMP_temperature;BMP_pressure;BME280_temperature;BME280_humidity;BME280_pressure;Samples;Min_cycle;Max_cycle;Signal;HPM_P1;HPM_P2
2022/04/22 00:00:21;;;;;;;18.00;13.80;;;;;;;5.26;91.19;99245.26;109784;1270;22308;-60
2022/04/22 00:02:49;;;;;;;19.60;14.10;;;;;;;5.26;91.05;99244.17;109782;1270;22578;-60
2022/04/22 00:05:17;;;;;;;16.40;12.80;;;;;;;5.27;91.26;99244.96;109803;1268;22510;-59
2022/04/22 00:07:47;;;;;;;14.60;11.70;;;;;;;5.26;90.95;99247.26;109766;1271;23070;-60
2022/04/22 00:10:16;;;;;;;13.90;11.20;;;;;;;5.25;91.09;99244.20;109796;1270;22396;-59
2022/04/22 00:13:04;;;;;;;14.20;10.40;;;;;;;5.24;90.59;99244.65;109764;1270;22382;-59
2022/04/22 00:15:32;;;;;;;14.80;11.70;;;;;;;5.23;91.09;99246.51;109761;1269;22908;-60
2022/04/22 00:18:00;;;;;;;14.00;10.80;;;;;;;5.21;90.98;99245.54;109759;1271;22392;-59
2022/04/22 00:20:48;;;;;;;16.90;12.10;;;;;;;5.20;90.90;99247.80;109765;1270;22415;-59
2022/04/22 00:23:19;;;;;;;16.50;12.30;;;;;;;5.20;90.94;99244.55;109788;1270;22416;-59
2022/04/22 00:25:47;;;;;;;15.80;11.40;;;;;;;5.19;90.56;99245.46;109815;1270;22438;-60
2022/04/22 00:28:15;;;;;;;14.90;11.80;;;;;;;5.18;90.64;99243.15;109787;1270;22477;-60
2022/04/22 00:31:03;;;;;;;14.90;11.70;;;;;;;5.15;90.87;99241.85;109719;1270;22480;-60
2022/04/22 00:33:31;;;;;;;14.90;11.80;;;;;;;5.13;90.63;99240.22;109777;1270;22423;-59
2022/04/22 00:35:59;;;;;;;16.10;11.70;;;;;;;5.11;91.11;99238.66;109776;1270;22567;-59
2022/04/22 00:38:37;;;;;;;15.50;11.70;;;;;;;5.09;90.81;99239.19;109739;1271;23154;-59
2022/04/22 00:41:25;;;;;;;16.20;11.60;;;;;;;5.08;91.08;99237.42;109762;1270;23127;-59
2022/04/22 00:43:53;;;;;;;15.20;11.80;;;;;;;5.08;91.19;99239.16;109716;1272;22436;-59
2022/04/22 00:46:41;;;;;;;13.20;10.80;;;;;;;5.09;90.96;99237.07;109777;1269;23176;-59
2022/04/22 00:49:09;;;;;;;15.50;11.10;;;;;;;5.10;91.08;99236.11;109788;1270;22421;-59
2022/04/22 00:51:57;;;;;;;13.00;9.80;;;;;;;5.09;91.12;99239.48;109790;1270;22394;-59
2022/04/22 00:54:25;;;;;;;11.90;9.00;;;;;;;5.08;91.37;99239.36;109760;1270;22372;-59
2022/04/22 00:56:53;;;;;;;14.50;9.80;;;;;;;5.07;91.09;99237.92;106681;1271;22536;-60
2022/04/22 00:59:21;;;;;;;13.10;10.50;;;;;;;5.08;91.22;99239.91;109685;1270;23339;-59
2022/04/22 01:01:51;;;;;;;13.80;10.50;;;;;;;5.07;91.15;99235.89;109773;1270;22414;-59
2022/04/22 01:09:56;;;;;;;13.80;9.50;;;;;;;5.09;91.40;99236.41;109776;1270;22393;-59
2022/04/22 01:12:26;;;;;;;10.90;8.90;;;;;;;5.08;91.12;99237.13;109778;1270;22374;-59
2022/04/22 01:14:56;;;;;;;14.50;10.20;;;;;;;5.07;91.58;99239.05;109721;1271;22368;-59
2022/04/22 01:17:26;;;;;;;11.00;8.80;;;;;;;5.06;91.40;99240.13;109793;1270;22491;-59
2022/04/22 01:19:55;;;;;;;10.90;8.30;;;;;;;5.05;91.75;99240.69;109771;1270;23132;-59
2022/04/22 01:22:24;;;;;;;12.10;8.40;;;;;;;5.05;91.62;99238.42;109814;1270;22268;-59
2022/04/22 01:24:53;;;;;;;11.50;8.80;;;;;;;5.03;91.36;99240.00;109766;1270;23294;-59
2022/04/22 01:27:41;;;;;;;10.50;8.80;;;;;;;5.02;91.67;99236.52;109764;1271;23185;-59
2022/04/22 01:30:09;;;;;;;11.40;8.80;;;;;;;5.01;91.44;99237.83;109793;1271;22489;-60
2022/04/22 01:32:57;;;;;;;12.70;9.00;;;;;;;4.97;91.49;99240.27;109798;1270;22412;-59
2022/04/22 01:35:27;;;;;;;12.30;8.40;;;;;;;4.95;91.37;99234.85;109797;1270;22407;-64
2022/04/22 01:37:55;;;;;;;12.50;8.80;;;;;;;4.93;91.38;99238.90;109790;1270;22515;-65
2022/04/22 01:40:23;;;;;;;11.30;8.70;;;;;;;4.92;91.43;99233.57;109776;1271;22422;-64
2022/04/22 01:42:51;;;;;;;12.20;8.90;;;;;;;4.90;91.25;99233.17;109794;1270;23625;-64
2022/04/22 01:45:23;;;;;;;12.10;8.60;;;;;;;4.88;91.53;99227.90;109769;1271;22455;-64
2022/04/22 01:47:51;;;;;;;16.20;9.10;;;;;;;4.88;91.51;99225.88;109791;1271;22402;-64
2022/04/22 01:50:29;;;;;;;13.80;9.30;;;;;;;4.87;91.68;99222.56;109775;1270;23081;-64
2022/04/22 01:52:57;;;;;;;12.90;9.50;;;;;;;4.85;91.44;99223.20;109797;1270;23169;-64
2022/04/22 01:55:27;;;;;;;11.90;8.70;;;;;;;4.83;91.87;99222.23;109755;1271;23198;-64
2022/04/22 01:57:55;;;;;;;11.30;8.80;;;;;;;4.83;91.70;99219.73;109740;1270;22455;-64
2022/04/22 02:00:23;;;;;;;12.80;8.90;;;;;;;4.83;92.17;99224.10;109761;1270;22406;-65
2022/04/22 02:03:11;;;;;;;;;;;;;;;4.82;92.09;99222.04;109798;1270;22480;-64
2022/04/22 02:05:40;;;;;;;13.50;9.90;;;;;;;4.81;92.42;99225.66;109784;1270;22424;-59
2022/04/22 02:08:12;;;;;;;11.10;8.90;;;;;;;4.79;92.08;99228.38;109779;1271;22304;-59
2022/04/22 02:10:43;;;;;;;13.90;10.00;;;;;;;4.78;92.32;99230.51;109761;1270;22377;-59
2022/04/22 02:13:12;;;;;;;13.40;9.50;;;;;;;4.79;92.27;99228.80;109751;1270;22995;-59
2022/04/22 02:15:41;;;;;;;13.60;10.30;;;;;;;4.79;92.57;99225.18;109792;1270;22409;-59
2022/04/22 02:18:09;;;;;;;15.60;11.10;;;;;;;4.81;92.33;99224.59;109786;1271;22423;-59
2022/04/22 02:20:37;;;;;;;13.40;10.50;;;;;;;4.82;92.44;99228.77;109701;1273;22420;-59
2022/04/22 02:23:24;;;;;;;14.50;10.80;;;;;;;4.82;92.82;99224.86;109798;1270;22456;-59
2022/04/22 02:25:58;;;;;;;15.60;12.10;;;;;;;4.83;92.58;99220.78;109789;1270;22447;-59
2022/04/22 02:28:32;;;;;;;15.70;12.10;;;;;;;4.84;93.04;99224.42;109752;1270;22428;-60
2022/04/22 02:31:08;;;;;;;15.20;11.80;;;;;;;4.86;93.19;99229.22;109763;1271;22474;-60
2022/04/22 02:33:39;;;;;;;15.30;11.30;;;;;;;4.87;93.22;99231.24;109788;1271;22387;-59
2022/04/22 02:36:07;;;;;;;14.90;11.20;;;;;;;4.87;93.21;99231.48;108020;1270;24221;-64
2022/04/22 02:38:37;;;;;;;12.00;10.20;;;;;;;4.89;93.42;99231.75;109692;1270;23222;-64
2022/04/22 02:46:57;;;;;;;16.50;12.30;;;;;;;4.93;93.44;99230.31;109765;1271;22401;-64
2022/04/22 02:49:28;;;;;;;15.00;12.00;;;;;;;4.93;93.98;99230.44;109741;1271;23186;-64
2022/04/22 02:51:56;;;;;;;15.70;11.90;;;;;;;4.94;93.80;99236.56;109790;1270;22321;-64
2022/04/22 02:54:43;;;;;;;13.20;10.60;;;;;;;4.95;93.92;99235.69;109759;1270;22450;-64
2022/04/22 02:57:12;;;;;;;13.90;11.50;;;;;;;4.96;93.91;99238.83;109743;1270;22370;-64
2022/04/22 03:00:00;;;;;;;13.40;11.00;;;;;;;4.98;94.03;99242.45;109760;1271;22424;-64
2022/04/22 03:02:28;;;;;;;14.90;12.00;;;;;;;5.00;94.18;99237.96;109784;1271;22398;-65
2022/04/22 03:05:16;;;;;;;12.10;10.30;;;;;;;5.01;94.14;99244.42;109773;1270;22227;-64
2022/04/22 03:07:45;;;;;;;14.60;12.00;;;;;;;5.01;94.27;99239.69;109786;1271;22420;-64
2022/04/22 03:10:12;;;;;;;12.10;10.30;;;;;;;5.02;94.43;99242.24;109737;1271;23346;-64
2022/04/22 03:13:00;;;;;;;13.40;11.20;;;;;;;5.04;94.37;99239.81;109748;1270;22238;-64
2022/04/22 03:15:33;;;;;;;15.80;11.90;;;;;;;5.05;94.57;99240.48;109785;1270;23123;-64
2022/04/22 03:18:02;;;;;;;16.10;12.90;;;;;;;5.06;94.28;99243.84;109784;1270;22412;-64
2022/04/22 03:20:30;;;;;;;17.50;13.60;;;;;;;5.07;94.59;99245.70;109768;1271;23259;-64
2022/04/22 03:22:59;;;;;;;18.60;14.40;;;;;;;5.09;94.57;99247.38;109750;1270;22429;-64
2022/04/22 03:25:47;;;;;;;17.60;13.10;;;;;;;5.09;94.93;99246.90;109738;1270;22412;-65
2022/04/22 03:28:17;;;;;;;16.90;13.60;;;;;;;5.10;94.57;99247.77;109778;1271;22399;-65
2022/04/22 03:31:05;;;;;;;21.30;14.80;;;;;;;5.11;94.64;99253.01;109783;1270;22490;-64
2022/04/22 03:33:33;;;;;;;18.30;14.00;;;;;;;5.11;94.97;99251.21;109783;1270;23150;-65
2022/04/22 03:36:21;;;;;;;;;;;;;;;5.11;95.02;99252.79;109745;1270;22464;-64
2022/04/22 03:39:10;;;;;;;20.10;15.20;;;;;;;5.10;95.21;99256.91;109672;1271;22458;-59
2022/04/22 03:41:58;;;;;;;17.60;12.90;;;;;;;5.09;95.09;99259.34;105396;1271;24227;-59
2022/04/22 03:44:27;;;;;;;18.20;13.30;;;;;;;5.10;95.22;99261.40;109722;1270;23210;-60
2022/04/22 03:47:14;;;;;;;17.00;13.00;;;;;;;5.12;95.46;99256.27;109830;1270;22411;-59
2022/04/22 03:49:45;;;;;;;15.60;12.80;;;;;;;5.11;95.72;99256.69;109618;1271;22416;-59
2022/04/22 03:52:33;;;;;;;14.70;11.90;;;;;;;5.12;95.46;99260.05;109788;1270;22446;-59
2022/04/22 03:55:01;;;;;;;15.30;12.10;;;;;;;5.12;95.70;99262.04;109778;1269;23279;-59
2022/04/22 04:00:42;;;;;;;17.60;12.10;;;;;;;5.13;95.68;99264.02;109754;1271;22409;-59
2022/04/22 04:03:23;;;;;;;14.20;11.50;;;;;;;5.15;95.87;99266.45;109788;1270;22399;-60
2022/04/22 04:05:51;;;;;;;14.20;11.10;;;;;;;5.16;95.66;99265.15;109785;1270;22439;-59
2022/04/22 04:08:39;;;;;;;13.40;10.90;;;;;;;5.18;95.91;99264.02;109785;1270;23401;-59
2022/04/22 04:17:02;;;;;;;12.10;9.90;;;;;;;5.20;95.86;99265.45;109792;1271;22421;-59
2022/04/22 04:25:23;;;;;;;14.00;11.50;;;;;;;5.21;96.02;99265.85;109761;1271;23315;-59
2022/04/22 04:27:52;;;;;;;13.10;10.30;;;;;;;5.22;96.03;99268.16;109796;1270;22388;-59
2022/04/22 04:30:20;;;;;;;13.20;11.50;;;;;;;5.24;96.16;99268.85;109764;1269;22411;-59
2022/04/22 04:32:48;;;;;;;15.50;12.60;;;;;;;5.25;96.25;99267.91;109786;1271;23239;-59
2022/04/22 04:35:17;;;;;;;14.80;11.70;;;;;;;5.26;96.14;99267.73;109770;1270;22802;-59
2022/04/22 04:37:45;;;;;;;14.40;11.50;;;;;;;5.27;96.12;99276.78;109761;1271;22418;-59
2022/04/22 04:40:33;;;;;;;14.00;12.20;;;;;;;5.29;96.58;99278.55;109773;1270;23435;-60
2022/04/22 04:43:01;;;;;;;13.70;11.60;;;;;;;5.31;96.55;99274.66;109776;1270;22439;-59
2022/04/22 04:45:50;;;;;;;14.90;12.10;;;;;;;5.33;96.78;99273.52;109788;1270;22387;-59
2022/04/22 04:48:21;;;;;;;15.40;12.60;;;;;;;5.37;96.66;99271.23;109782;1270;22494;-59
2022/04/22 04:51:09;;;;;;;13.30;11.00;;;;;;;5.40;96.48;99278.73;109768;1270;22480;-59
2022/04/22 04:53:41;;;;;;;15.00;13.00;;;;;;;5.42;96.70;99278.73;109792;1271;23096;-59
2022/04/22 04:56:29;;;;;;;;;;;;;;;5.45;96.69;99278.48;109728;1273;23186;-59
2022/04/22 04:58:57;;;;;;;16.40;12.90;;;;;;;5.47;96.90;99280.98;109762;1269;22449;-59
2022/04/22 05:01:34;;;;;;;;;;;;;;;5.50;96.54;99286.92;109797;1270;22413;-60
2022/04/22 05:04:02;;;;;;;15.90;13.00;;;;;;;5.54;96.93;99295.84;109765;1270;22880;-58
2022/04/22 05:06:50;;;;;;;;;;;;;;;5.56;96.68;99297.69;109790;1270;22480;-59
2022/04/22 05:09:19;;;;;;;17.30;13.70;;;;;;;5.58;96.88;99300.02;109805;1270;22525;-58
2022/04/22 05:11:48;;;;;;;21.30;15.70;;;;;;;5.60;96.98;99301.64;109749;1270;22398;-59
2022/04/22 05:14:35;;;;;;;;;;;;;;;5.61;97.03;99299.66;109784;1270;22451;-59
2022/04/22 05:17:23;;;;;;;15.90;13.20;;;;;;;5.63;96.98;99302.23;109788;1270;22495;-64
2022/04/22 05:19:56;;;;;;;17.70;15.70;;;;;;;5.64;97.11;99301.04;109790;1270;22435;-64
2022/04/22 05:22:44;;;;;;;20.10;15.70;;;;;;;5.67;96.69;99305.58;109761;1270;22207;-64
2022/04/22 05:25:14;;;;;;;18.90;15.90;;;;;;;5.68;97.06;99306.44;109765;1270;22474;-64
2022/04/22 05:27:42;;;;;;;21.10;16.50;;;;;;;5.70;96.73;99305.66;109732;1270;22390;-65
2022/04/22 05:32:57;;;;;;;20.70;17.10;;;;;;;5.73;96.98;99310.61;109779;1270;23180;-65
2022/04/22 05:35:27;;;;;;;21.30;17.00;;;;;;;5.74;96.87;99315.89;109781;1270;22245;-64
2022/04/22 05:37:56;;;;;;;20.30;16.70;;;;;;;5.76;96.79;99318.69;109771;1270;22472;-66
2022/04/22 05:40:33;;;;;;;19.70;16.80;;;;;;;5.77;96.81;99320.77;109796;1270;23194;-64
2022/04/22 05:43:03;;;;;;;21.10;16.70;;;;;;;5.79;97.11;99325.06;109750;1271;22387;-64
2022/04/22 05:45:32;;;;;;;20.90;17.60;;;;;;;5.81;96.70;99332.10;109776;1270;22435;-64
2022/04/22 05:48:00;;;;;;;18.90;16.30;;;;;;;5.82;96.71;99335.38;109793;1271;22406;-64
2022/04/22 05:50:42;;;;;;;19.10;17.00;;;;;;;5.84;96.86;99336.27;109804;1270;22351;-64
2022/04/22 05:53:10;;;;;;;18.70;16.40;;;;;;;5.87;96.72;99337.09;109778;1271;22372;-64
2022/04/22 05:55:58;;;;;;;22.20;16.50;;;;;;;5.89;96.77;99331.44;109832;1270;23244;-64
2022/04/22 05:58:26;;;;;;;20.30;17.10;;;;;;;5.91;96.58;99334.61;109794;1270;23478;-65
2022/04/22 06:01:15;;;;;;;20.50;17.00;;;;;;;5.94;96.60;99336.67;109768;1270;22479;-66
2022/04/22 06:03:43;;;;;;;20.60;17.70;;;;;;;5.95;96.94;99335.64;109786;1270;22403;-65
2022/04/22 06:06:31;;;;;;;21.00;17.60;;;;;;;5.97;96.78;99334.21;109786;1270;23230;-66
2022/04/22 06:11:46;;;;;;;20.50;16.20;;;;;;;6.00;96.57;99337.99;109797;1269;22247;-65
2022/04/22 06:14:14;;;;;;;23.50;18.20;;;;;;;6.03;96.59;99343.65;109779;1270;22387;-65
2022/04/22 06:16:42;;;;;;;22.90;18.30;;;;;;;6.06;96.62;99344.16;109800;1270;22413;-65
2022/04/22 06:19:29;;;;;;;24.50;17.80;;;;;;;6.08;96.49;99343.89;109801;1269;22430;-65
2022/04/22 06:21:58;;;;;;;19.60;17.50;;;;;;;6.08;96.47;99348.38;109794;1270;22495;-63
2022/04/22 06:24:26;;;;;;;21.50;17.90;;;;;;;6.10;96.73;99347.52;109812;1270;23304;-65
2022/04/22 06:27:22;;;;;;;24.70;18.80;;;;;;;6.12;96.71;99349.95;109798;1270;22521;-65
2022/04/22 06:29:52;;;;;;;21.10;18.20;;;;;;;6.13;96.61;99348.17;109771;1270;22438;-64
2022/04/22 06:32:41;;;;;;;21.20;18.00;;;;;;;6.15;96.13;99350.58;109807;1269;22485;-65
2022/04/22 06:35:10;;;;;;;23.00;19.50;;;;;;;6.16;96.51;99352.84;109796;1271;22343;-64
2022/04/22 06:37:40;;;;;;;25.40;21.00;;;;;;;6.19;96.48;99357.50;109798;1270;22400;-64
2022/04/22 06:45:59;;;;;;;23.50;19.90;;;;;;;6.25;96.48;99362.04;109804;1270;23165;-64
2022/04/22 06:48:30;;;;;;;26.30;20.60;;;;;;;6.25;96.23;99367.38;109815;1269;22419;-63
2022/04/22 06:51:17;;;;;;;25.80;20.90;;;;;;;6.26;96.34;99370.69;109779;1270;23141;-63
2022/04/22 06:53:46;;;;;;;27.50;21.40;;;;;;;6.27;96.30;99369.92;109788;1271;22385;-63
2022/04/22 06:56:14;;;;;;;29.90;25.40;;;;;;;6.29;95.94;99371.15;109814;1270;22620;-63
2022/04/22 06:58:42;;;;;;;31.00;25.00;;;;;;;6.30;96.31;99373.45;109716;1272;22496;-64
2022/04/22 07:01:13;;;;;;;32.60;24.30;;;;;;;6.33;96.39;99371.99;109771;1270;22609;-63
2022/04/22 07:04:03;;;;;;;27.30;21.70;;;;;;;6.35;96.16;99370.69;109770;1271;22476;-63
2022/04/22 07:06:34;;;;;;;25.40;21.70;;;;;;;6.36;95.82;99370.51;109818;1270;22377;-63
2022/04/22 07:09:04;;;;;;;44.30;31.50;;;;;;;6.38;96.29;99368.98;109799;1270;23013;-63
2022/04/22 07:11:33;;;;;;;31.20;22.90;;;;;;;6.41;96.06;99370.84;109783;1269;23315;-63
2022/04/22 07:14:21;;;;;;;29.60;22.00;;;;;;;6.44;96.28;99374.10;109781;1270;22696;-63
2022/04/22 07:16:49;;;;;;;30.40;23.30;;;;;;;6.46;96.01;99373.06;109600;1270;22405;-63
2022/04/22 07:19:17;;;;;;;29.80;24.10;;;;;;;6.49;95.94;99373.46;109802;1270;23193;-63
2022/04/22 07:22:05;;;;;;;;;;;;;;;6.53;95.83;99375.17;109812;1270;23252;-63
2022/04/22 07:24:34;;;;;;;25.60;21.00;;;;;;;6.55;95.73;99371.43;109821;1270;23371;-63
2022/04/22 07:27:03;;;;;;;25.50;20.00;;;;;;;6.59;96.33;99376.45;109772;1270;22438;-59
2022/04/22 07:29:40;;;;;;;29.10;23.10;;;;;;;6.62;96.28;99375.61;109735;1271;22538;-59
2022/04/22 07:32:11;;;;;;;26.50;22.00;;;;;;;6.63;95.96;99375.05;109725;1271;22382;-58
2022/04/22 07:34:39;;;;;;;30.70;24.30;;;;;;;6.63;96.01;99378.67;109778;1269;22402;-59
2022/04/22 07:37:09;;;;;;;27.40;22.20;;;;;;;6.63;95.61;99378.88;109781;1270;22485;-58
2022/04/22 07:39:40;;;;;;;27.80;22.60;;;;;;;6.64;95.51;99386.05;109813;1270;22403;-58
2022/04/22 07:42:15;;;;;;;28.50;22.20;;;;;;;6.64;95.73;99380.74;109785;1270;22222;-58
2022/04/22 07:47:36;;;;;;;30.50;25.70;;;;;;;6.69;95.37;99389.46;109799;1269;22554;-59
2022/04/22 07:50:05;;;;;;;25.80;21.40;;;;;;;6.72;95.27;99395.49;109786;1270;22546;-58
2022/04/22 07:52:48;;;;;;;27.00;22.60;;;;;;;6.73;94.93;99394.27;109793;1270;22393;-58
2022/04/22 07:55:18;;;;;;;28.40;22.20;;;;;;;6.72;94.82;99391.98;109805;1270;22466;-59
2022/04/22 07:58:06;;;;;;;27.20;22.40;;;;;;;6.73;94.93;99389.89;109754;1270;22398;-59
2022/04/22 08:00:35;;;;;;;28.30;23.20;;;;;;;6.76;94.56;99386.69;109796;1270;23358;-59
2022/04/22 08:03:22;;;;;;;29.00;24.00;;;;;;;6.77;94.77;99382.66;109795;1270;22406;-58
2022/04/22 08:05:50;;;;;;;34.10;27.40;;;;;;;6.78;94.39;99383.91;109806;1269;22434;-59
2022/04/22 08:08:20;;;;;;;25.60;21.80;;;;;;;6.79;94.44;99388.31;109783;1270;22505;-59
2022/04/22 08:11:09;;;;;;;27.80;22.40;;;;;;;6.79;94.41;99389.94;109595;1270;22494;-59
2022/04/22 08:13:45;;;;;;;28.70;23.60;;;;;;;6.81;94.40;99393.36;109512;1271;23463;-58
2022/04/22 08:16:24;;;;;;;30.10;23.00;;;;;;;6.84;94.38;99395.23;109551;1270;22534;-59
2022/04/22 08:19:16;;;;;;;35.70;24.40;;;;;;;6.88;94.38;99395.96;109451;1273;23367;-59
2022/04/22 08:21:44;;;;;;;27.40;23.10;;;;;;;6.90;94.09;99399.05;109794;1270;22496;-59
2022/04/22 08:24:13;;;;;;;33.00;23.50;;;;;;;6.91;94.31;99402.82;109778;1270;23271;-59
2022/04/22 08:27:00;;;;;;;;;;;;;;;6.93;94.09;99408.19;109789;1270;22482;-58
2022/04/22 08:29:28;;;;;;;32.10;23.70;;;;;;;6.94;93.73;99411.20;109774;1271;22430;-58
2022/04/22 08:31:56;;;;;;;29.30;23.00;;;;;;;6.95;93.67;99410.52;109693;1272;22396;-59
2022/04/22 08:34:25;;;;;;;30.20;25.40;;;;;;;6.97;94.26;99413.48;109805;1269;22497;-59
2022/04/22 08:36:54;;;;;;;33.10;26.90;;;;;;;6.99;93.90;99417.98;109798;1270;22395;-58
2022/04/22 08:39:32;;;;;;;36.20;27.50;;;;;;;7.00;93.56;99418.80;109764;1270;22414;-58
2022/04/22 08:42:01;;;;;;;34.90;24.90;;;;;;;6.99;93.40;99414.73;109819;1270;22449;-59
2022/04/22 08:45:09;;;;;;;30.70;24.50;;;;;;;6.99;93.14;99415.33;109628;1270;22407;-59
2022/04/22 08:50:44;;;;;;;29.70;24.20;;;;;;;6.98;93.07;99420.29;109778;1269;22434;-59
2022/04/22 08:53:14;;;;;;;31.00;23.60;;;;;;;6.97;92.85;99416.94;109719;1271;22547;-58
2022/04/22 08:56:05;;;;;;;31.10;23.60;;;;;;;6.95;93.11;99416.97;109743;1270;22452;-58
2022/04/22 08:58:36;;;;;;;35.40;27.00;;;;;;;6.96;92.81;99411.41;109792;1270;22434;-59
2022/04/22 09:01:23;;;;;;;29.40;23.70;;;;;;;6.97;92.71;99413.65;109699;1272;23480;-58
2022/04/22 09:03:51;;;;;;;27.20;23.10;;;;;;;6.97;92.88;99418.31;109780;1271;22515;-59
2022/04/22 09:06:40;;;;;;;29.30;23.60;;;;;;;6.97;92.93;99418.05;109767;1270;22423;-59
2022/04/22 09:09:10;;;;;;;33.10;24.70;;;;;;;6.99;92.67;99416.23;109774;1270;23068;-59
2022/04/22 09:11:42;;;;;;;28.20;23.00;;;;;;;6.97;92.57;99412.85;109787;1269;23572;-59
2022/04/22 09:14:31;;;;;;;30.00;23.30;;;;;;;6.98;92.80;99417.13;109660;1271;23219;-59
2022/04/22 09:16:59;;;;;;;32.50;23.50;;;;;;;6.98;92.96;99419.41;109781;1270;22432;-59
2022/04/22 09:19:36;;;;;;;35.50;25.30;;;;;;;6.99;92.67;99426.11;109785;1270;23141;-59
2022/04/22 09:22:26;;;;;;;29.90;24.40;;;;;;;7.01;92.94;99428.16;109772;1270;23022;-59
2022/04/22 09:24:58;;;;;;;29.10;23.60;;;;;;;7.02;92.84;99429.23;109767;1270;22375;-59
2022/04/22 09:27:40;;;;;;;29.10;23.40;;;;;;;7.03;92.53;99434.26;109722;1273;22268;-59
2022/04/22 09:30:28;;;;;;;33.70;23.00;;;;;;;7.04;92.63;99439.45;109795;1270;22407;-59
2022/04/22 09:32:56;;;;;;;28.80;21.90;;;;;;;7.06;92.90;99440.36;109776;1270;22233;-58
2022/04/22 09:35:28;;;;;;;31.10;23.50;;;;;;;7.07;92.76;99442.86;109813;1269;22529;-59
2022/04/22 09:43:12;;;;;;;34.00;24.70;;;;;;;7.13;92.69;99440.73;104423;1284;24103;-59
2022/04/22 09:45:40;;;;;;;36.80;27.20;;;;;;;7.15;92.54;99443.63;108569;1286;22528;-59
2022/04/22 09:48:17;;;;;;;32.10;24.80;;;;;;;7.16;92.68;99445.05;108666;1284;22471;-59
2022/04/22 09:51:06;;;;;;;32.50;24.60;;;;;;;7.17;92.52;99452.46;108620;1284;22407;-60
2022/04/22 09:53:34;;;;;;;34.40;25.50;;;;;;;7.19;92.67;99448.33;108381;1282;184383;-60
2022/04/22 09:56:22;;;;;;;32.10;23.50;;;;;;;7.21;92.75;99453.04;108971;1281;22417;-59
2022/04/22 09:58:50;;;;;;;39.90;24.70;;;;;;;7.22;92.63;99458.30;108824;1281;22447;-59
2022/04/22 10:01:32;;;;;;;30.90;22.30;;;;;;;7.23;92.47;99456.70;108956;1282;23170;-60
2022/04/22 10:04:20;;;;;;;;;;;;;;;7.23;92.40;99454.64;108973;1282;22467;-58
2022/04/22 10:07:07;;;;;;;30.80;24.00;;;;;;;7.23;92.54;99452.36;105630;1283;24277;-60
2022/04/22 10:09:55;;;;;;;33.70;24.20;;;;;;;7.23;92.63;99455.56;108716;1283;22471;-61
2022/04/22 10:12:30;;;;;;;31.60;24.00;;;;;;;7.24;92.78;99454.89;108515;1283;23281;-58
2022/04/22 10:14:58;;;;;;;31.20;23.40;;;;;;;7.25;92.29;99460.04;108966;1281;22423;-60
2022/04/22 10:17:26;;;;;;;28.60;22.50;;;;;;;7.27;92.67;99465.18;108608;1283;23082;-60
2022/04/22 10:20:14;;;;;;;37.10;27.10;;;;;;;7.28;92.30;99468.15;108959;1281;22252;-60
2022/04/22 10:22:48;;;;;;;30.00;24.30;;;;;;;7.32;92.57;99472.14;108738;1282;22445;-60
2022/04/22 10:25:17;;;;;;;27.60;23.40;;;;;;;7.34;92.66;99472.40;108926;1281;22254;-58
2022/04/22 10:28:06;;;;;;;30.50;23.20;;;;;;;7.36;92.53;99476.17;108991;1281;22488;-60
2022/04/22 10:30:35;;;;;;;29.80;24.50;;;;;;;7.38;92.59;99477.34;108944;1281;22428;-58
2022/04/22 10:33:05;;;;;;;33.70;23.00;;;;;;;7.40;92.69;99477.56;108818;1282;22521;-57
2022/04/22 10:35:41;;;;;;;48.40;32.60;;;;;;;7.42;92.70;99477.89;107989;1284;24256;-58
2022/04/22 10:38:29;;;;;;;42.50;28.70;;;;;;;7.45;92.60;99478.50;104734;1284;25128;-60
2022/04/22 10:40:59;;;;;;;;;;;;;;;7.47;92.43;99480.48;104745;1284;25006;-60
2022/04/22 10:43:28;;;;;;;31.10;23.70;;;;;;;7.49;92.36;99483.02;104752;1284;25188;-60
2022/04/22 10:49:14;;;;;;;38.70;28.10;;;;;;;7.52;92.38;99478.45;105030;1277;25465;-60
2022/04/22 10:52:03;;;;;;;61.70;39.80;;;;;;;7.52;92.44;99478.35;109506;1276;22413;-60
2022/04/22 10:54:51;;;;;;;42.80;29.20;;;;;;;7.53;92.46;99476.91;109566;1274;22514;-60
2022/04/22 10:57:42;;;;;;;73.90;43.50;;;;;;;7.54;92.27;99479.41;109582;1274;22421;-58
2022/04/22 11:00:10;;;;;;;48.20;32.30;;;;;;;7.54;92.20;99475.73;109568;1274;22434;-60
2022/04/22 11:03:00;;;;;;;45.90;32.60;;;;;;;7.56;92.20;99479.32;109464;1276;22519;-60
2022/04/22 11:05:31;;;;;;;40.60;28.10;;;;;;;7.58;92.43;99473.78;109574;1274;22395;-60
2022/04/22 11:08:29;;;;;;;158.70;62.10;;;;;;;7.62;92.33;99479.60;109596;1274;23161;-61
2022/04/22 11:11:00;;;;;;;195.60;73.10;;;;;;;7.63;92.31;99472.80;109564;1274;23355;-60
2022/04/22 11:13:29;;;;;;;117.80;47.90;;;;;;;7.64;92.26;99474.70;109383;1277;22398;-60
2022/04/22 11:16:20;;;;;;;71.40;38.70;;;;;;;7.65;92.32;99473.04;107474;1277;22553;-60
2022/04/22 11:19:19;;;;;;;54.90;33.80;;;;;;;7.67;91.97;99470.16;105243;1274;22894;-60
2022/04/22 11:22:07;;;;;;;54.40;30.00;;;;;;;7.69;92.23;99468.35;105240;1274;22586;-60
2022/04/22 11:24:36;;;;;;;336.10;170.80;;;;;;;7.70;92.05;99466.58;105165;1278;25173;-60
2022/04/22 11:27:08;;;;;;;73.20;37.50;;;;;;;7.71;92.22;99463.23;105226;1275;24901;-60
2022/04/22 11:29:45;;;;;;;166.80;69.80;;;;;;;7.73;92.16;99460.45;109585;1274;22409;-60
2022/04/22 11:32:23;;;;;;;104.90;48.60;;;;;;;7.74;91.97;99455.13;109575;1274;22377;-60
2022/04/22 11:35:09;;;;;;;89.60;43.90;;;;;;;7.76;92.10;99456.52;109599;1274;23251;-60
2022/04/22 11:37:39;;;;;;;57.50;30.90;;;;;;;7.78;92.09;99457.39;109580;1274;22411;-60
2022/04/22 11:40:08;;;;;;;133.40;64.20;;;;;;;7.81;92.09;99459.69;109461;1277;23374;-60
2022/04/22 11:42:46;;;;;;;60.20;43.90;;;;;;;7.83;91.83;99457.35;109390;1277;22455;-60
2022/04/22 11:45:15;;;;;;;81.30;38.30;;;;;;;7.87;92.00;99459.32;109483;1277;23101;-60
2022/04/22 11:48:07;;;;;;;42.30;28.20;;;;;;;7.91;91.93;99466.14;109494;1276;22608;-60
2022/04/22 11:50:42;;;;;;;51.20;31.40;;;;;;;7.96;91.92;99466.70;109391;1274;23361;-60
2022/04/22 11:53:18;;;;;;;50.00;28.00;;;;;;;8.00;91.73;99457.45;109425;1277;22266;-60
2022/04/22 11:55:58;;;;;;;69.50;32.70;;;;;;;8.05;91.83;99455.83;109466;1276;23224;-60
2022/04/22 11:58:28;;;;;;;50.60;29.70;;;;;;;8.11;91.68;99457.33;109451;1276;22414;-60
2022/04/22 12:06:53;;;;;;;49.70;28.70;;;;;;;8.28;91.46;99451.21;109351;1277;22437;-60
2022/04/22 12:09:21;;;;;;;30.60;22.40;;;;;;;8.31;91.26;99451.85;109374;1276;23451;-60
2022/04/22 12:12:06;;;;;;;69.60;34.80;;;;;;;8.37;90.88;99448.44;109472;1275;22381;-60
2022/04/22 12:14:37;;;;;;;27.80;21.80;;;;;;;8.40;90.43;99444.80;109043;1277;22405;-60
2022/04/22 12:17:13;;;;;;;46.90;28.80;;;;;;;8.44;90.21;99445.25;109029;1276;22501;-60
2022/04/22 12:19:48;;;;;;;71.10;36.70;;;;;;;8.48;90.16;99438.22;109061;1277;22409;-60
2022/04/22 12:22:17;;;;;;;29.20;22.90;;;;;;;8.53;90.03;99442.56;109349;1277;22466;-60
2022/04/22 12:25:06;;;;;;;51.40;44.20;;;;;;;8.58;89.87;99439.17;109207;1276;22412;-60
2022/04/22 12:27:42;;;;;;;28.50;22.80;;;;;;;8.62;89.48;99441.73;109362;1276;22395;-60
2022/04/22 12:30:12;;;;;;;30.80;22.20;;;;;;;8.64;89.44;99439.89;109446;1276;22397;-61
2022/04/22 12:32:43;;;;;;;139.30;57.40;;;;;;;8.67;89.25;99436.16;109328;1275;22589;-60
2022/04/22 12:35:15;;;;;;;43.20;25.40;;;;;;;8.68;88.96;99431.25;109464;1275;22390;-60
2022/04/22 12:37:50;;;;;;;170.20;59.70;;;;;;;8.72;88.71;99432.02;109436;1277;22419;-60
2022/04/22 12:40:21;;;;;;;65.40;29.80;;;;;;;8.75;88.46;99431.63;109534;1272;23199;-60
2022/04/22 12:42:49;;;;;;;86.10;39.60;;;;;;;8.78;88.40;99435.59;109596;1274;22459;-60
2022/04/22 12:54:08;;;;;;;66.80;32.50;;;;;;;8.93;87.72;99428.15;108739;1282;22221;-60
2022/04/22 12:56:37;;;;;;;31.20;19.70;;;;;;;8.96;87.72;99426.66;108754;1282;22526;-60
2022/04/22 12:59:06;;;;;;;25.30;19.10;;;;;;;8.98;87.36;99425.65;108759;1282;22442;-60
2022/04/22 13:01:40;;;;;;;26.10;18.10;;;;;;;9.01;87.30;99421.02;108733;1283;23164;-60